sensor_id;sensor_type;location;lat;lon;timestamp;P1;durP1;ratioP1;P2;durP2;ratioP2
7154;SDS011;3619;53.784;10.440;2023-12-04T00:00:23;60.00;;;57.70;;
7154;SDS011;3619;53.784;10.440;2023-12-04T00:02:50;53.50;;;51.47;;
7154;SDS011;3619;53.784;10.440;2023-12-04T00:05:18;56.23;;;54.10;;
7154;SDS011;3619;53.784;10.440;2023-12-04T00:07:45;57.20;;;55.00;;
7154;SDS011;3619;53.784;10.440;2023-12-04T00:10:12;64.47;;;62.07;;
7154;SDS011;3619;53.784;10.440;2023-12-04T00:12:39;57.70;;;55.50;;
7154;SDS011;3619;53.784;10.440;2023-12-04T00:15:07;63.57;;;61.17;;
7154;SDS011;3619;53.784;10.440;2023-12-04T00:17:34;62.53;;;60.17;;
7154;SDS011;3619;53.784;10.440;2023-12-04T00:20:05;60.17;;;57.87;;
7154;SDS011;3619;53.784;10.440;2023-12-04T00:22:37;60.33;;;57.73;;
7154;SDS011;3619;53.784;10.440;2023-12-04T00:25:05;61.07;;;58.77;;
7154;SDS011;3619;53.784;10.440;2023-12-04T00:27:33;57.67;;;55.47;;
7154;SDS011;3619;53.784;10.440;2023-12-04T00:29:59;65.00;;;62.57;;
7154;SDS011;3619;53.784;10.440;2023-12-04T00:32:28;62.03;;;59.73;;
7154;SDS011;3619;53.784;10.440;2023-12-04T00:34:55;71.63;;;68.97;;
7154;SDS011;3619;53.784;10.440;2023-12-04T00:37:22;65.40;;;62.97;;
7154;SDS011;3619;53.784;10.440;2023-12-04T00:39:51;69.00;;;66.13;;
7154;SDS011;3619;53.784;10.440;2023-12-04T00:42:18;60.20;;;57.90;;
7154;SDS011;3619;53.784;10.440;2023-12-04T00:44:44;62.20;;;59.87;;
7154;SDS011;3619;53.784;10.440;2023-12-04T00:47:12;65.37;;;62.83;;
7154;SDS011;3619;53.784;10.440;2023-12-04T00:49:39;66.93;;;64.43;;
7154;SDS011;3619;53.784;10.440;2023-12-04T00:52:06;60.43;;;57.90;;
7154;SDS011;3619;53.784;10.440;2023-12-04T00:54:33;55.67;;;53.57;;
7154;SDS011;3619;53.784;10.440;2023-12-04T00:57:01;57.17;;;54.97;;
7154;SDS011;3619;53.784;10.440;2023-12-04T00:59:28;56.77;;;54.57;;
7154;SDS011;3619;53.784;10.440;2023-12-04T01:01:55;53.63;;;51.57;;
7154;SDS011;3619;53.784;10.440;2023-12-04T01:04:22;62.33;;;59.97;;
7154;SDS011;3619;53.784;10.440;2023-12-04T01:06:51;66.50;;;64.00;;
7154;SDS011;3619;53.784;10.440;2023-12-04T01:09:18;66.83;;;64.33;;
7154;SDS011;3619;53.784;10.440;2023-12-04T01:11:49;67.73;;;65.20;;
7154;SDS011;3619;53.784;10.440;2023-12-04T01:14:17;61.23;;;58.87;;
7154;SDS011;3619;53.784;10.440;2023-12-04T01:16:44;64.33;;;61.83;;
7154;SDS011;3619;53.784;10.440;2023-12-04T01:19:11;58.17;;;55.97;;
7154;SDS011;3619;53.784;10.440;2023-12-04T01:21:38;65.80;;;63.30;;
7154;SDS011;3619;53.784;10.440;2023-12-04T01:24:05;59.80;;;57.50;;
7154;SDS011;3619;53.784;10.440;2023-12-04T01:26:32;61.70;;;59.00;;
7154;SDS011;3619;53.784;10.440;2023-12-04T01:28:59;63.40;;;61.00;;
7154;SDS011;3619;53.784;10.440;2023-12-04T01:31:27;61.00;;;58.70;;
7154;SDS011;3619;53.784;10.440;2023-12-04T01:33:54;61.67;;;59.33;;
7154;SDS011;3619;53.784;10.440;2023-12-04T01:36:21;60.50;;;58.20;;
7154;SDS011;3619;53.784;10.440;2023-12-04T01:38:47;59.53;;;57.23;;
7154;SDS011;3619;53.784;10.440;2023-12-04T01:41:14;64.20;;;61.77;;
7154;SDS011;3619;53.784;10.440;2023-12-04T01:43:41;61.10;;;58.80;;
7154;SDS011;3619;53.784;10.440;2023-12-04T01:46:08;63.30;;;60.90;;
7154;SDS011;3619;53.784;10.440;2023-12-04T01:48:38;62.43;;;60.07;;
7154;SDS011;3619;53.784;10.440;2023-12-04T01:51:05;66.17;;;62.93;;
7154;SDS011;3619;53.784;10.440;2023-12-04T01:53:36;63.63;;;61.23;;
7154;SDS011;3619;53.784;10.440;2023-12-04T01:56:06;60.43;;;58.13;;
7154;SDS011;3619;53.784;10.440;2023-12-04T01:58:34;60.87;;;58.57;;
7154;SDS011;3619;53.784;10.440;2023-12-04T02:01:01;62.67;;;60.27;;
7154;SDS011;3619;53.784;10.440;2023-12-04T02:03:28;63.70;;;61.30;;
7154;SDS011;3619;53.784;10.440;2023-12-04T02:05:56;65.40;;;62.90;;
7154;SDS011;3619;53.784;10.440;2023-12-04T02:08:25;63.40;;;61.00;;
7154;SDS011;3619;53.784;10.440;2023-12-04T02:10:52;64.47;;;61.97;;
7154;SDS011;3619;53.784;10.440;2023-12-04T02:13:19;72.27;;;69.57;;
7154;SDS011;3619;53.784;10.440;2023-12-04T02:15:48;68.83;;;66.23;;
7154;SDS011;3619;53.784;10.440;2023-12-04T02:18:17;74.00;;;71.30;;
7154;SDS011;3619;53.784;10.440;2023-12-04T02:20:45;67.67;;;64.90;;
7154;SDS011;3619;53.784;10.440;2023-12-04T02:23:13;79.90;;;77.00;;
7154;SDS011;3619;53.784;10.440;2023-12-04T02:25:41;72.47;;;69.77;;
7154;SDS011;3619;53.784;10.440;2023-12-04T02:28:09;71.17;;;68.53;;
7154;SDS011;3619;53.784;10.440;2023-12-04T02:30:39;69.37;;;66.77;;
7154;SDS011;3619;53.784;10.440;2023-12-04T02:33:09;71.13;;;68.50;;
7154;SDS011;3619;53.784;10.440;2023-12-04T02:35:39;71.10;;;68.47;;
7154;SDS011;3619;53.784;10.440;2023-12-04T02:38:07;73.93;;;71.20;;
7154;SDS011;3619;53.784;10.440;2023-12-04T02:40:34;72.77;;;70.07;;
7154;SDS011;3619;53.784;10.440;2023-12-04T02:43:03;82.10;;;79.10;;
7154;SDS011;3619;53.784;10.440;2023-12-04T02:45:30;72.67;;;69.97;;
7154;SDS011;3619;53.784;10.440;2023-12-04T02:47:57;77.30;;;74.43;;
7154;SDS011;3619;53.784;10.440;2023-12-04T02:50:24;75.17;;;72.37;;
7154;SDS011;3619;53.784;10.440;2023-12-04T02:52:51;79.43;;;76.53;;
7154;SDS011;3619;53.784;10.440;2023-12-04T02:55:17;78.73;;;75.83;;
7154;SDS011;3619;53.784;10.440;2023-12-04T02:57:44;83.23;;;80.20;;
7154;SDS011;3619;53.784;10.440;2023-12-04T03:00:13;77.27;;;74.43;;
7154;SDS011;3619;53.784;10.440;2023-12-04T03:02:40;80.40;;;77.47;;
7154;SDS011;3619;53.784;10.440;2023-12-04T03:05:07;75.40;;;72.60;;
7154;SDS011;3619;53.784;10.440;2023-12-04T03:07:34;76.53;;;73.73;;
7154;SDS011;3619;53.784;10.440;2023-12-04T03:10:01;66.70;;;64.20;;
7154;SDS011;3619;53.784;10.440;2023-12-04T03:12:29;78.00;;;75.10;;
7154;SDS011;3619;53.784;10.440;2023-12-04T03:14:55;68.43;;;65.90;;
7154;SDS011;3619;53.784;10.440;2023-12-04T03:17:23;75.90;;;73.10;;
7154;SDS011;3619;53.784;10.440;2023-12-04T03:19:51;71.37;;;68.70;;
7154;SDS011;3619;53.784;10.440;2023-12-04T03:22:18;76.63;;;73.83;;
7154;SDS011;3619;53.784;10.440;2023-12-04T03:24:44;77.53;;;74.70;;
7154;SDS011;3619;53.784;10.440;2023-12-04T03:27:11;83.73;;;80.67;;
7154;SDS011;3619;53.784;10.440;2023-12-04T03:29:38;73.77;;;71.07;;
7154;SDS011;3619;53.784;10.440;2023-12-04T03:32:05;72.53;;;69.83;;
7154;SDS011;3619;53.784;10.440;2023-12-04T03:34:33;75.17;;;72.37;;
7154;SDS011;3619;53.784;10.440;2023-12-04T03:37:00;74.10;;;71.40;;
7154;SDS011;3619;53.784;10.440;2023-12-04T03:39:27;77.97;;;75.07;;
7154;SDS011;3619;53.784;10.440;2023-12-04T03:41:54;84.50;;;81.40;;
7154;SDS011;3619;53.784;10.440;2023-12-04T03:44:22;82.13;;;79.13;;
7154;SDS011;3619;53.784;10.440;2023-12-04T03:46:48;78.40;;;75.50;;
7154;SDS011;3619;53.784;10.440;2023-12-04T03:49:15;87.20;;;84.00;;
7154;SDS011;3619;53.784;10.440;2023-12-04T03:51:43;81.17;;;78.20;;
7154;SDS011;3619;53.784;10.440;2023-12-04T03:54:10;81.47;;;78.47;;
7154;SDS011;3619;53.784;10.440;2023-12-04T03:56:38;83.77;;;80.70;;
7154;SDS011;3619;53.784;10.440;2023-12-04T03:59:05;84.53;;;81.43;;
7154;SDS011;3619;53.784;10.440;2023-12-04T04:01:32;77.83;;;74.97;;
7154;SDS011;3619;53.784;10.440;2023-12-04T04:03:59;82.27;;;79.27;;
7154;SDS011;3619;53.784;10.440;2023-12-04T04:06:26;81.60;;;78.60;;
7154;SDS011;3619;53.784;10.440;2023-12-04T04:08:54;80.13;;;77.20;;
7154;SDS011;3619;53.784;10.440;2023-12-04T04:11:21;71.60;;;68.90;;
7154;SDS011;3619;53.784;10.440;2023-12-04T04:13:48;67.93;;;65.43;;
7154;SDS011;3619;53.784;10.440;2023-12-04T04:16:15;65.03;;;62.63;;
7154;SDS011;3619;53.784;10.440;2023-12-04T04:18:42;69.10;;;66.50;;
7154;SDS011;3619;53.784;10.440;2023-12-04T04:21:09;54.70;;;52.63;;
7154;SDS011;3619;53.784;10.440;2023-12-04T04:23:36;59.00;;;56.77;;
7154;SDS011;3619;53.784;10.440;2023-12-04T04:26:04;49.23;;;47.33;;
7154;SDS011;3619;53.784;10.440;2023-12-04T04:28:32;43.07;;;41.43;;
7154;SDS011;3619;53.784;10.440;2023-12-04T04:30:59;45.67;;;43.93;;
7154;SDS011;3619;53.784;10.440;2023-12-04T04:33:26;42.43;;;40.73;;
7154;SDS011;3619;53.784;10.440;2023-12-04T04:35:53;38.33;;;36.87;;
7154;SDS011;3619;53.784;10.440;2023-12-04T04:38:20;35.03;;;33.73;;
7154;SDS011;3619;53.784;10.440;2023-12-04T04:40:46;35.87;;;34.50;;
7154;SDS011;3619;53.784;10.440;2023-12-04T04:43:15;34.13;;;32.83;;
7154;SDS011;3619;53.784;10.440;2023-12-04T04:45:41;36.60;;;35.20;;
7154;SDS011;3619;53.784;10.440;2023-12-04T04:48:08;35.03;;;33.70;;
7154;SDS011;3619;53.784;10.440;2023-12-04T04:50:35;29.03;;;27.93;;
7154;SDS011;3619;53.784;10.440;2023-12-04T04:53:02;31.10;;;29.90;;
7154;SDS011;3619;53.784;10.440;2023-12-04T04:55:29;32.97;;;31.70;;
7154;SDS011;3619;53.784;10.440;2023-12-04T04:57:57;32.10;;;30.90;;
7154;SDS011;3619;53.784;10.440;2023-12-04T05:00:25;34.47;;;33.17;;
7154;SDS011;3619;53.784;10.440;2023-12-04T05:02:52;32.03;;;30.83;;
7154;SDS011;3619;53.784;10.440;2023-12-04T05:05:19;32.20;;;31.00;;
7154;SDS011;3619;53.784;10.440;2023-12-04T05:07:45;35.57;;;34.20;;
7154;SDS011;3619;53.784;10.440;2023-12-04T05:10:12;34.40;;;33.10;;
7154;SDS011;3619;53.784;10.440;2023-12-04T05:12:39;32.47;;;31.27;;
7154;SDS011;3619;53.784;10.440;2023-12-04T05:15:06;35.03;;;33.63;;
7154;SDS011;3619;53.784;10.440;2023-12-04T05:17:35;35.13;;;33.80;;
7154;SDS011;3619;53.784;10.440;2023-12-04T05:20:03;36.57;;;35.17;;
7154;SDS011;3619;53.784;10.440;2023-12-04T05:22:31;41.37;;;39.77;;
7154;SDS011;3619;53.784;10.440;2023-12-04T05:24:58;40.97;;;39.37;;
7154;SDS011;3619;53.784;10.440;2023-12-04T05:27:25;36.60;;;35.20;;
7154;SDS011;3619;53.784;10.440;2023-12-04T05:29:52;33.47;;;32.17;;
7154;SDS011;3619;53.784;10.440;2023-12-04T05:32:19;28.67;;;27.57;;
7154;SDS011;3619;53.784;10.440;2023-12-04T05:34:47;32.17;;;30.97;;
7154;SDS011;3619;53.784;10.440;2023-12-04T05:37:14;32.30;;;31.10;;
7154;SDS011;3619;53.784;10.440;2023-12-04T05:39:41;32.50;;;31.30;;
7154;SDS011;3619;53.784;10.440;2023-12-04T05:42:08;35.83;;;34.17;;
7154;SDS011;3619;53.784;10.440;2023-12-04T05:44:34;36.33;;;34.93;;
7154;SDS011;3619;53.784;10.440;2023-12-04T05:47:02;40.87;;;39.17;;
7154;SDS011;3619;53.784;10.440;2023-12-04T05:49:30;43.40;;;41.70;;
7154;SDS011;3619;53.784;10.440;2023-12-04T05:51:59;41.90;;;40.30;;
7154;SDS011;3619;53.784;10.440;2023-12-04T05:54:26;45.37;;;43.50;;
7154;SDS011;3619;53.784;10.440;2023-12-04T05:56:53;39.47;;;37.97;;
7154;SDS011;3619;53.784;10.440;2023-12-04T05:59:20;42.47;;;40.87;;
7154;SDS011;3619;53.784;10.440;2023-12-04T06:01:48;45.50;;;43.77;;
7154;SDS011;3619;53.784;10.440;2023-12-04T06:04:16;45.57;;;43.83;;
7154;SDS011;3619;53.784;10.440;2023-12-04T06:06:43;42.10;;;40.50;;
7154;SDS011;3619;53.784;10.440;2023-12-04T06:09:11;45.67;;;43.97;;
7154;SDS011;3619;53.784;10.440;2023-12-04T06:11:40;45.97;;;44.20;;
7154;SDS011;3619;53.784;10.440;2023-12-04T06:14:07;48.80;;;46.93;;
7154;SDS011;3619;53.784;10.440;2023-12-04T06:16:33;45.93;;;44.20;;
7154;SDS011;3619;53.784;10.440;2023-12-04T06:19:00;42.20;;;40.60;;
7154;SDS011;3619;53.784;10.440;2023-12-04T06:21:27;37.73;;;36.33;;
7154;SDS011;3619;53.784;10.440;2023-12-04T06:23:54;39.73;;;38.23;;
7154;SDS011;3619;53.784;10.440;2023-12-04T06:26:24;42.00;;;40.40;;
7154;SDS011;3619;53.784;10.440;2023-12-04T06:28:51;32.13;;;30.93;;
7154;SDS011;3619;53.784;10.440;2023-12-04T06:31:18;33.10;;;31.83;;
7154;SDS011;3619;53.784;10.440;2023-12-04T06:33:46;36.07;;;34.67;;
7154;SDS011;3619;53.784;10.440;2023-12-04T06:36:13;34.20;;;32.90;;
7154;SDS011;3619;53.784;10.440;2023-12-04T06:38:45;34.37;;;32.93;;
7154;SDS011;3619;53.784;10.440;2023-12-04T06:41:15;33.27;;;31.97;;
7154;SDS011;3619;53.784;10.440;2023-12-04T06:43:45;32.53;;;31.33;;
7154;SDS011;3619;53.784;10.440;2023-12-04T06:46:12;36.70;;;35.30;;
7154;SDS011;3619;53.784;10.440;2023-12-04T06:48:42;34.23;;;32.93;;
7154;SDS011;3619;53.784;10.440;2023-12-04T06:51:09;43.13;;;41.47;;
7154;SDS011;3619;53.784;10.440;2023-12-04T06:53:36;42.00;;;40.40;;
7154;SDS011;3619;53.784;10.440;2023-12-04T06:56:03;39.90;;;38.40;;
7154;SDS011;3619;53.784;10.440;2023-12-04T06:58:31;41.37;;;39.77;;
7154;SDS011;3619;53.784;10.440;2023-12-04T07:01:00;39.70;;;38.20;;
7154;SDS011;3619;53.784;10.440;2023-12-04T07:03:27;41.63;;;40.03;;
7154;SDS011;3619;53.784;10.440;2023-12-04T07:05:54;44.90;;;43.20;;
7154;SDS011;3619;53.784;10.440;2023-12-04T07:08:21;39.77;;;38.17;;
7154;SDS011;3619;53.784;10.440;2023-12-04T07:10:47;40.63;;;39.03;;
7154;SDS011;3619;53.784;10.440;2023-12-04T07:13:14;39.43;;;37.93;;
7154;SDS011;3619;53.784;10.440;2023-12-04T07:15:41;43.73;;;42.03;;
7154;SDS011;3619;53.784;10.440;2023-12-04T07:18:09;41.07;;;39.47;;
7154;SDS011;3619;53.784;10.440;2023-12-04T07:20:36;42.17;;;40.57;;
7154;SDS011;3619;53.784;10.440;2023-12-04T07:23:03;41.93;;;40.33;;
7154;SDS011;3619;53.784;10.440;2023-12-04T07:25:29;41.50;;;39.90;;
7154;SDS011;3619;53.784;10.440;2023-12-04T07:27:56;44.33;;;42.63;;
7154;SDS011;3619;53.784;10.440;2023-12-04T07:30:24;45.03;;;43.33;;
7154;SDS011;3619;53.784;10.440;2023-12-04T07:32:51;43.43;;;41.77;;
7154;SDS011;3619;53.784;10.440;2023-12-04T07:35:19;44.43;;;42.73;;
7154;SDS011;3619;53.784;10.440;2023-12-04T07:37:46;52.20;;;50.20;;
7154;SDS011;3619;53.784;10.440;2023-12-04T07:40:13;47.50;;;45.70;;
7154;SDS011;3619;53.784;10.440;2023-12-04T07:42:40;54.10;;;52.07;;
7154;SDS011;3619;53.784;10.440;2023-12-04T07:45:08;51.40;;;49.40;;
7154;SDS011;3619;53.784;10.440;2023-12-04T07:47:35;52.47;;;50.47;;
7154;SDS011;3619;53.784;10.440;2023-12-04T07:50:03;47.37;;;45.57;;
7154;SDS011;3619;53.784;10.440;2023-12-04T07:52:32;51.83;;;49.87;;
7154;SDS011;3619;53.784;10.440;2023-12-04T07:54:59;44.47;;;42.77;;
7154;SDS011;3619;53.784;10.440;2023-12-04T07:57:26;46.00;;;44.20;;
7154;SDS011;3619;53.784;10.440;2023-12-04T07:59:52;51.43;;;49.43;;
7154;SDS011;3619;53.784;10.440;2023-12-04T08:02:19;40.90;;;39.33;;
7154;SDS011;3619;53.784;10.440;2023-12-04T08:04:48;41.63;;;40.03;;
7154;SDS011;3619;53.784;10.440;2023-12-04T08:07:15;44.50;;;42.80;;
7154;SDS011;3619;53.784;10.440;2023-12-04T08:09:43;45.70;;;43.97;;
7154;SDS011;3619;53.784;10.440;2023-12-04T08:12:10;40.87;;;39.30;;
7154;SDS011;3619;53.784;10.440;2023-12-04T08:14:37;42.23;;;40.63;;
7154;SDS011;3619;53.784;10.440;2023-12-04T08:17:04;40.03;;;38.53;;
7154;SDS011;3619;53.784;10.440;2023-12-04T08:19:31;45.03;;;43.23;;
7154;SDS011;3619;53.784;10.440;2023-12-04T08:21:58;37.90;;;36.50;;
7154;SDS011;3619;53.784;10.440;2023-12-04T08:24:27;33.33;;;32.03;;
7154;SDS011;3619;53.784;10.440;2023-12-04T08:26:55;34.77;;;33.37;;
7154;SDS011;3619;53.784;10.440;2023-12-04T08:29:23;29.97;;;28.87;;
7154;SDS011;3619;53.784;10.440;2023-12-04T08:31:49;29.70;;;28.60;;
7154;SDS011;3619;53.784;10.440;2023-12-04T08:34:16;31.53;;;30.33;;
7154;SDS011;3619;53.784;10.440;2023-12-04T08:36:43;28.83;;;27.73;;
7154;SDS011;3619;53.784;10.440;2023-12-04T08:39:10;26.70;;;25.70;;
7154;SDS011;3619;53.784;10.440;2023-12-04T08:41:37;26.60;;;25.60;;
7154;SDS011;3619;53.784;10.440;2023-12-04T08:44:05;27.27;;;26.27;;
7154;SDS011;3619;53.784;10.440;2023-12-04T08:46:32;23.97;;;23.07;;
7154;SDS011;3619;53.784;10.440;2023-12-04T08:48:59;28.77;;;27.67;;
7154;SDS011;3619;53.784;10.440;2023-12-04T08:51:26;23.30;;;22.40;;
7154;SDS011;3619;53.784;10.440;2023-12-04T08:53:53;25.70;;;24.70;;
7154;SDS011;3619;53.784;10.440;2023-12-04T08:56:20;24.53;;;23.63;;
7154;SDS011;3619;53.784;10.440;2023-12-04T08:58:48;31.10;;;29.90;;
7154;SDS011;3619;53.784;10.440;2023-12-04T09:01:17;28.87;;;27.77;;
7154;SDS011;3619;53.784;10.440;2023-12-04T09:03:43;31.13;;;29.93;;
7154;SDS011;3619;53.784;10.440;2023-12-04T09:06:10;30.87;;;29.70;;
7154;SDS011;3619;53.784;10.440;2023-12-04T09:08:37;31.87;;;30.67;;
7154;SDS011;3619;53.784;10.440;2023-12-04T09:11:04;29.17;;;28.07;;
7154;SDS011;3619;53.784;10.440;2023-12-04T09:13:31;28.30;;;27.20;;
7154;SDS011;3619;53.784;10.440;2023-12-04T09:15:59;29.03;;;27.93;;
7154;SDS011;3619;53.784;10.440;2023-12-04T09:18:27;26.93;;;25.93;;
7154;SDS011;3619;53.784;10.440;2023-12-04T09:20:54;30.70;;;29.50;;
7154;SDS011;3619;53.784;10.440;2023-12-04T09:23:20;31.80;;;30.60;;
7154;SDS011;3619;53.784;10.440;2023-12-04T09:25:47;27.27;;;26.27;;
7154;SDS011;3619;53.784;10.440;2023-12-04T09:28:14;30.17;;;29.03;;
7154;SDS011;3619;53.784;10.440;2023-12-04T09:30:41;30.57;;;29.37;;
7154;SDS011;3619;53.784;10.440;2023-12-04T09:33:08;32.27;;;31.07;;
7154;SDS011;3619;53.784;10.440;2023-12-04T09:35:36;28.27;;;27.17;;
7154;SDS011;3619;53.784;10.440;2023-12-04T09:38:03;33.17;;;31.87;;
7154;SDS011;3619;53.784;10.440;2023-12-04T09:40:30;30.90;;;29.70;;
7154;SDS011;3619;53.784;10.440;2023-12-04T09:42:58;31.70;;;30.50;;
7154;SDS011;3619;53.784;10.440;2023-12-04T09:45:25;33.93;;;32.63;;
7154;SDS011;3619;53.784;10.440;2023-12-04T09:47:55;35.37;;;34.03;;
7154;SDS011;3619;53.784;10.440;2023-12-04T09:50:23;28.90;;;27.80;;
7154;SDS011;3619;53.784;10.440;2023-12-04T09:52:51;35.40;;;34.07;;
7154;SDS011;3619;53.784;10.440;2023-12-04T09:55:18;31.87;;;30.67;;
7154;SDS011;3619;53.784;10.440;2023-12-04T09:57:45;37.00;;;35.60;;
7154;SDS011;3619;53.784;10.440;2023-12-04T10:00:14;35.00;;;33.43;;
7154;SDS011;3619;53.784;10.440;2023-12-04T10:02:41;35.27;;;33.93;;
7154;SDS011;3619;53.784;10.440;2023-12-04T10:05:08;33.73;;;32.43;;
7154;SDS011;3619;53.784;10.440;2023-12-04T10:07:35;38.23;;;36.47;;
7154;SDS011;3619;53.784;10.440;2023-12-04T10:10:04;42.13;;;39.43;;
7154;SDS011;3619;53.784;10.440;2023-12-04T10:12:33;38.10;;;36.67;;
7154;SDS011;3619;53.784;10.440;2023-12-04T10:15:05;42.17;;;40.57;;
7154;SDS011;3619;53.784;10.440;2023-12-04T10:17:34;35.77;;;34.37;;
7154;SDS011;3619;53.784;10.440;2023-12-04T10:20:07;33.33;;;32.03;;
7154;SDS011;3619;53.784;10.440;2023-12-04T10:22:39;32.37;;;31.17;;
7154;SDS011;3619;53.784;10.440;2023-12-04T10:25:16;41.33;;;39.77;;
7154;SDS011;3619;53.784;10.440;2023-12-04T10:27:45;38.80;;;37.30;;
7154;SDS011;3619;53.784;10.440;2023-12-04T10:30:22;39.27;;;37.77;;
7154;SDS011;3619;53.784;10.440;2023-12-04T10:32:53;41.90;;;40.30;;
7154;SDS011;3619;53.784;10.440;2023-12-04T10:35:21;33.50;;;32.20;;
7154;SDS011;3619;53.784;10.440;2023-12-04T10:37:48;31.63;;;30.43;;
7154;SDS011;3619;53.784;10.440;2023-12-04T10:40:23;40.17;;;38.67;;
7154;SDS011;3619;53.784;10.440;2023-12-04T10:42:51;39.50;;;38.00;;
7154;SDS011;3619;53.784;10.440;2023-12-04T10:45:35;40.40;;;38.87;;
7154;SDS011;3619;53.784;10.440;2023-12-04T10:48:03;37.20;;;35.80;;
7154;SDS011;3619;53.784;10.440;2023-12-04T10:50:31;45.60;;;43.90;;
7154;SDS011;3619;53.784;10.440;2023-12-04T10:52:59;39.27;;;37.77;;
7154;SDS011;3619;53.784;10.440;2023-12-04T10:55:30;40.27;;;38.77;;
7154;SDS011;3619;53.784;10.440;2023-12-04T10:57:57;44.80;;;43.10;;
7154;SDS011;3619;53.784;10.440;2023-12-04T11:00:26;46.00;;;44.20;;
7154;SDS011;3619;53.784;10.440;2023-12-04T11:02:56;46.53;;;44.73;;
7154;SDS011;3619;53.784;10.440;2023-12-04T11:05:27;42.07;;;40.47;;
7154;SDS011;3619;53.784;10.440;2023-12-04T11:07:56;43.03;;;41.43;;
7154;SDS011;3619;53.784;10.440;2023-12-04T11:10:26;50.00;;;48.10;;
7154;SDS011;3619;53.784;10.440;2023-12-04T11:12:56;52.33;;;50.33;;
7154;SDS011;3619;53.784;10.440;2023-12-04T11:15:30;49.77;;;47.87;;
7154;SDS011;3619;53.784;10.440;2023-12-04T11:18:01;50.57;;;48.67;;
7154;SDS011;3619;53.784;10.440;2023-12-04T11:20:29;55.17;;;53.07;;
7154;SDS011;3619;53.784;10.440;2023-12-04T11:23:03;53.97;;;51.90;;
7154;SDS011;3619;53.784;10.440;2023-12-04T11:25:31;62.40;;;59.97;;
7154;SDS011;3619;53.784;10.440;2023-12-04T11:28:01;66.43;;;63.83;;
7154;SDS011;3619;53.784;10.440;2023-12-04T11:30:29;55.90;;;53.80;;
7154;SDS011;3619;53.784;10.440;2023-12-04T11:32:57;58.77;;;56.57;;
7154;SDS011;3619;53.784;10.440;2023-12-04T11:35:25;54.03;;;51.93;;
7154;SDS011;3619;53.784;10.440;2023-12-04T11:37:53;53.90;;;51.83;;
7154;SDS011;3619;53.784;10.440;2023-12-04T11:40:20;61.90;;;59.57;;
7154;SDS011;3619;53.784;10.440;2023-12-04T11:42:47;61.97;;;59.57;;
7154;SDS011;3619;53.784;10.440;2023-12-04T11:45:19;64.33;;;61.93;;
7154;SDS011;3619;53.784;10.440;2023-12-04T11:47:50;74.27;;;71.37;;
7154;SDS011;3619;53.784;10.440;2023-12-04T11:50:18;70.60;;;67.70;;
7154;SDS011;3619;53.784;10.440;2023-12-04T11:52:46;63.53;;;61.13;;
7154;SDS011;3619;53.784;10.440;2023-12-04T11:55:15;60.40;;;58.10;;
7154;SDS011;3619;53.784;10.440;2023-12-04T11:57:43;63.17;;;60.77;;
7154;SDS011;3619;53.784;10.440;2023-12-04T12:00:12;66.80;;;64.23;;
7154;SDS011;3619;53.784;10.440;2023-12-04T12:02:48;71.97;;;69.27;;
7154;SDS011;3619;53.784;10.440;2023-12-04T12:05:27;80.40;;;77.47;;
7154;SDS011;3619;53.784;10.440;2023-12-04T12:07:57;68.87;;;65.67;;
7154;SDS011;3619;53.784;10.440;2023-12-04T12:10:26;59.50;;;57.23;;
7154;SDS011;3619;53.784;10.440;2023-12-04T12:12:53;64.90;;;62.50;;
7154;SDS011;3619;53.784;10.440;2023-12-04T12:15:21;67.40;;;64.90;;
7154;SDS011;3619;53.784;10.440;2023-12-04T12:17:49;77.33;;;74.47;;
7154;SDS011;3619;53.784;10.440;2023-12-04T12:20:15;71.00;;;68.37;;
7154;SDS011;3619;53.784;10.440;2023-12-04T12:22:42;69.57;;;66.97;;
7154;SDS011;3619;53.784;10.440;2023-12-04T12:25:13;64.77;;;62.37;;
7154;SDS011;3619;53.784;10.440;2023-12-04T12:27:40;71.27;;;68.63;;
7154;SDS011;3619;53.784;10.440;2023-12-04T12:30:08;76.20;;;73.40;;
7154;SDS011;3619;53.784;10.440;2023-12-04T12:32:36;65.37;;;62.87;;
7154;SDS011;3619;53.784;10.440;2023-12-04T12:35:05;67.70;;;65.17;;
7154;SDS011;3619;53.784;10.440;2023-12-04T12:37:33;68.43;;;65.87;;
7154;SDS011;3619;53.784;10.440;2023-12-04T12:40:01;77.03;;;74.23;;
7154;SDS011;3619;53.784;10.440;2023-12-04T12:42:30;61.20;;;58.80;;
7154;SDS011;3619;53.784;10.440;2023-12-04T12:44:59;61.43;;;59.13;;
7154;SDS011;3619;53.784;10.440;2023-12-04T12:47:27;60.70;;;58.40;;
7154;SDS011;3619;53.784;10.440;2023-12-04T12:49:55;55.30;;;53.20;;
7154;SDS011;3619;53.784;10.440;2023-12-04T12:52:23;57.87;;;55.67;;
7154;SDS011;3619;53.784;10.440;2023-12-04T12:54:52;56.77;;;54.63;;
7154;SDS011;3619;53.784;10.440;2023-12-04T12:57:19;52.50;;;50.50;;
7154;SDS011;3619;53.784;10.440;2023-12-04T12:59:46;59.47;;;57.20;;
7154;SDS011;3619;53.784;10.440;2023-12-04T13:02:13;63.57;;;61.17;;
7154;SDS011;3619;53.784;10.440;2023-12-04T13:04:41;64.93;;;62.50;;
7154;SDS011;3619;53.784;10.440;2023-12-04T13:07:09;56.97;;;54.83;;
7154;SDS011;3619;53.784;10.440;2023-12-04T13:09:38;61.23;;;58.93;;
7154;SDS011;3619;53.784;10.440;2023-12-04T13:12:06;59.30;;;57.07;;
7154;SDS011;3619;53.784;10.440;2023-12-04T13:14:35;55.73;;;53.63;;
7154;SDS011;3619;53.784;10.440;2023-12-04T13:17:02;62.13;;;59.80;;
7154;SDS011;3619;53.784;10.440;2023-12-04T13:19:31;63.33;;;60.93;;
7154;SDS011;3619;53.784;10.440;2023-12-04T13:21:59;50.70;;;48.80;;
7154;SDS011;3619;53.784;10.440;2023-12-04T13:24:26;46.43;;;44.63;;
7154;SDS011;3619;53.784;10.440;2023-12-04T13:26:55;50.67;;;48.77;;
7154;SDS011;3619;53.784;10.440;2023-12-04T13:29:22;55.10;;;53.00;;
7154;SDS011;3619;53.784;10.440;2023-12-04T13:31:50;54.03;;;51.97;;
7154;SDS011;3619;53.784;10.440;2023-12-04T13:34:19;59.03;;;56.80;;
7154;SDS011;3619;53.784;10.440;2023-12-04T13:36:46;52.30;;;50.30;;
7154;SDS011;3619;53.784;10.440;2023-12-04T13:39:13;54.17;;;52.07;;
7154;SDS011;3619;53.784;10.440;2023-12-04T13:41:45;45.07;;;43.37;;
7154;SDS011;3619;53.784;10.440;2023-12-04T13:44:33;43.53;;;41.87;;
7154;SDS011;3619;53.784;10.440;2023-12-04T13:47:01;55.40;;;53.30;;
7154;SDS011;3619;53.784;10.440;2023-12-04T13:49:27;53.50;;;51.50;;
7154;SDS011;3619;53.784;10.440;2023-12-04T13:51:54;50.53;;;48.63;;
7154;SDS011;3619;53.784;10.440;2023-12-04T13:54:23;49.23;;;47.33;;
7154;SDS011;3619;53.784;10.440;2023-12-04T13:57:02;51.80;;;49.80;;
7154;SDS011;3619;53.784;10.440;2023-12-04T13:59:31;58.93;;;56.73;;
7154;SDS011;3619;53.784;10.440;2023-12-04T14:02:00;57.93;;;55.73;;
7154;SDS011;3619;53.784;10.440;2023-12-04T14:04:29;57.30;;;55.00;;
7154;SDS011;3619;53.784;10.440;2023-12-04T14:06:56;53.90;;;51.83;;
7154;SDS011;3619;53.784;10.440;2023-12-04T14:09:23;45.17;;;43.37;;
7154;SDS011;3619;53.784;10.440;2023-12-04T14:11:50;52.67;;;50.47;;
7154;SDS011;3619;53.784;10.440;2023-12-04T14:14:17;51.37;;;49.37;;
7154;SDS011;3619;53.784;10.440;2023-12-04T14:16:46;50.60;;;48.70;;
7154;SDS011;3619;53.784;10.440;2023-12-04T14:19:13;52.10;;;50.10;;
7154;SDS011;3619;53.784;10.440;2023-12-04T14:21:42;57.30;;;55.10;;
7154;SDS011;3619;53.784;10.440;2023-12-04T14:24:09;53.70;;;51.63;;
7154;SDS011;3619;53.784;10.440;2023-12-04T14:26:36;46.70;;;44.90;;
7154;SDS011;3619;53.784;10.440;2023-12-04T14:29:03;46.73;;;44.93;;
7154;SDS011;3619;53.784;10.440;2023-12-04T14:31:32;54.93;;;52.83;;
7154;SDS011;3619;53.784;10.440;2023-12-04T14:34:01;50.30;;;48.40;;
7154;SDS011;3619;53.784;10.440;2023-12-04T14:36:28;48.80;;;46.93;;